Time;durP1;ratioP1;P1;durP2;ratioP2;P2;SDS_P1;SDS_P2;PMS_P1;PMS_P2;Temp;Humidity;BMP_temperature;BMP_pressure;BME280_temperature;BME280_humidity;BME280_pressure;Samples;Min_cycle;Max_cycle;Signal;HPM_P1;HPM_P2
2022/08/01 00:00:08;;;;;;;21.77;10.77;;;;;;;18.54;100.00;101652.41;5100908;28;20463;-71
2022/08/01 00:02:34;;;;;;;20.58;9.88;;;;;;;18.55;100.00;101658.59;5106243;28;20045;-70
2022/08/01 00:04:59;;;;;;;19.48;9.68;;;;;;;18.57;100.00;101658.59;5110433;28;20763;-70
2022/08/01 00:07:25;;;;;;;17.90;9.63;;;;;;;18.56;100.00;101659.47;5099213;28;20099;-71
2022/08/01 00:09:50;;;;;;;20.50;10.13;;;;;;;18.58;100.00;101657.72;5097141;28;20024;-71
2022/08/01 00:12:16;;;;;;;18.02;9.48;;;;;;;18.59;100.00;101664.81;5100508;28;20387;-70
2022/08/01 00:14:41;;;;;;;20.67;9.77;;;;;;;18.60;100.00;101670.16;5099607;28;20039;-70
2022/08/01 00:17:06;;;;;;;20.25;10.38;;;;;;;18.58;100.00;101668.38;5111448;28;20028;-69
2022/08/01 00:19:32;;;;;;;15.85;8.40;;;;;;;18.58;100.00;101661.25;5111316;28;20080;-69
2022/08/01 00:21:57;;;;;;;17.00;8.93;;;;;;;18.59;100.00;101665.69;5094514;28;20039;-70
2022/08/01 00:24:23;;;;;;;15.93;8.52;;;;;;;18.57;100.00;101661.25;5106047;28;20051;-70
2022/08/01 00:26:48;;;;;;;15.30;7.93;;;;;;;18.57;100.00;101663.94;5104145;28;20016;-71
2022/08/01 00:29:14;;;;;;;17.48;8.85;;;;;;;18.56;100.00;101660.38;5099794;28;20051;-70
2022/08/01 00:31:39;;;;;;;15.77;8.75;;;;;;;18.57;100.00;101671.94;5099962;28;20107;-69
2022/08/01 00:34:05;;;;;;;15.82;8.32;;;;;;;18.51;100.00;101665.72;5095918;28;20031;-70
2022/08/01 00:36:30;;;;;;;14.95;7.95;;;;;;;18.49;100.00;101663.97;5108482;28;20039;-70
2022/08/01 00:38:55;;;;;;;13.93;8.18;;;;;;;18.46;100.00;101667.53;5107407;28;20444;-71
2022/08/01 00:41:21;;;;;;;11.40;6.10;;;;;;;18.46;100.00;101667.53;5108575;28;20464;-70
2022/08/01 00:43:46;;;;;;;10.27;6.32;;;;;;;18.44;100.00;101671.97;5075063;28;20032;-71
2022/08/01 00:46:11;;;;;;;10.68;5.95;;;;;;;18.44;100.00;101661.31;5106521;28;20019;-70
2022/08/01 00:48:37;;;;;;;11.32;5.13;;;;;;;18.41;100.00;101666.66;5105038;28;20057;-70
2022/08/01 00:51:04;;;;;;;10.45;4.40;;;;;;;18.37;100.00;101668.44;5098882;28;20468;-70
2022/08/01 00:53:30;;;;;;;7.18;3.80;;;;;;;18.34;100.00;101664.91;5103335;28;20035;-70
2022/08/01 00:55:56;;;;;;;8.80;3.83;;;;;;;18.32;100.00;101666.69;5102983;28;20406;-71
2022/08/01 00:58:22;;;;;;;4.68;3.28;;;;;;;18.35;100.00;101669.31;5112267;28;20092;-71
2022/08/01 01:00:47;;;;;;;6.82;3.10;;;;;;;18.32;100.00;101667.53;5108467;28;20067;-69
2022/08/01 01:03:12;;;;;;;7.05;3.50;;;;;;;18.30;100.00;101669.34;5107626;28;20035;-71
2022/08/01 01:05:48;;;;;;;4.57;2.65;;;;;;;18.30;100.00;101665.78;5109224;28;20478;-70
2022/08/01 01:08:26;;;;;;;5.13;2.67;;;;;;;18.30;100.00;101668.44;5103545;28;20027;-71
2022/08/01 01:11:14;;;;;;;4.30;3.05;;;;;;;18.28;100.00;101659.59;5104892;28;20020;-70
2022/08/01 01:14:04;;;;;;;8.23;3.42;;;;;;;18.27;100.00;101661.38;5108575;28;20106;-70
2022/08/01 01:16:33;;;;;;;6.10;3.65;;;;;;;18.31;100.00;101659.56;5102399;28;20470;-70
2022/08/01 01:19:02;;;;;;;5.63;3.70;;;;;;;18.30;100.00;101658.69;5098436;28;20020;-70
2022/08/01 01:21:50;;;;;;;6.88;3.90;;;;;;;18.32;100.00;101656.88;5112842;28;20035;-70
2022/08/01 01:24:37;;;;;;;6.95;4.20;;;;;;;18.35;100.00;101650.66;5090303;28;20024;-69
2022/08/01 01:27:05;;;;;;;8.75;3.97;;;;;;;18.35;100.00;101656.91;5099563;28;20020;-71
2022/08/01 01:29:48;;;;;;;9.65;4.50;;;;;;;18.34;100.00;101654.25;5101891;28;20432;-71
2022/08/01 01:32:18;;;;;;;9.02;4.18;;;;;;;18.34;100.00;101660.47;5100883;28;20356;-70
2022/08/01 01:34:45;;;;;;;6.13;4.10;;;;;;;18.31;100.00;101656.91;5101258;28;20442;-71
2022/08/01 01:37:15;;;;;;;5.30;3.50;;;;;;;18.29;100.00;101661.38;5104206;28;20016;-70
2022/08/01 01:39:42;;;;;;;6.90;3.40;;;;;;;18.30;100.00;101657.78;5098404;28;20462;-71
2022/08/01 01:42:10;;;;;;;4.22;3.22;;;;;;;18.28;100.00;101655.13;5111775;28;20023;-71
2022/08/01 01:44:38;;;;;;;9.73;3.40;;;;;;;18.29;100.00;101661.38;5109635;28;20030;-71
2022/08/01 01:47:04;;;;;;;7.57;3.10;;;;;;;18.30;100.00;101660.44;5103656;28;20019;-69
2022/08/01 01:49:30;;;;;;;5.68;3.50;;;;;;;18.28;100.00;101660.47;5105900;28;20020;-71
2022/08/01 01:51:57;;;;;;;5.60;3.10;;;;;;;18.29;100.00;101666.69;5100921;28;20374;-70
2022/08/01 01:54:32;;;;;;;5.28;3.85;;;;;;;18.26;100.00;101667.59;5105366;28;20036;-70
2022/08/01 01:57:00;;;;;;;5.10;3.72;;;;;;;18.26;100.00;101667.59;5091714;28;20486;-70
2022/08/01 01:59:30;;;;;;;6.88;3.78;;;;;;;18.27;100.00;101666.69;5098641;28;20579;-70
2022/08/01 02:01:58;;;;;;;8.15;4.18;;;;;;;18.27;100.00;101663.13;5102220;28;20088;-70
2022/08/01 02:04:25;;;;;;;5.82;3.25;;;;;;;18.27;100.00;101663.13;5112073;28;20032;-70
2022/08/01 02:06:52;;;;;;;6.60;3.42;;;;;;;18.25;100.00;101662.25;5108932;28;20015;-70
2022/08/01 02:09:20;;;;;;;7.28;3.38;;;;;;;18.23;100.00;101666.69;5063820;28;20095;-70
2022/08/01 02:11:50;;;;;;;6.45;3.95;;;;;;;18.21;100.00;101666.69;5106353;28;20031;-70
2022/08/01 02:14:17;;;;;;;4.82;3.80;;;;;;;18.18;100.00;101667.59;5105870;28;20115;-70
2022/08/01 02:16:47;;;;;;;6.57;3.42;;;;;;;18.19;100.00;101673.78;5108952;28;20023;-70
2022/08/01 02:19:12;;;;;;;7.53;3.75;;;;;;;18.18;100.00;101667.59;5102235;28;20077;-69
2022/08/01 02:21:51;;;;;;;9.05;3.50;;;;;;;18.18;100.00;101667.59;5112640;28;20035;-70
2022/08/01 02:24:33;;;;;;;4.70;4.05;;;;;;;18.17;100.00;101667.59;5080635;28;20119;-70
2022/08/01 02:27:03;;;;;;;7.78;4.07;;;;;;;18.18;100.00;101666.72;5111350;28;20028;-70
2022/08/01 02:29:37;;;;;;;7.28;4.60;;;;;;;18.17;100.00;101667.59;5105954;28;20023;-70
2022/08/01 02:32:04;;;;;;;7.05;4.50;;;;;;;18.12;100.00;101672.94;5113868;28;20110;-70
2022/08/01 02:34:32;;;;;;;4.45;4.03;;;;;;;18.10;100.00;101666.72;5100883;28;20067;-70
2022/08/01 02:36:59;;;;;;;6.82;4.28;;;;;;;18.11;100.00;101657.84;5108981;28;20068;-71
2022/08/01 02:39:28;;;;;;;8.27;4.22;;;;;;;18.11;100.00;101667.59;5107224;28;20037;-70
2022/08/01 02:41:58;;;;;;;10.98;4.65;;;;;;;18.11;100.00;101672.91;5096000;28;20488;-70
2022/08/01 02:44:31;;;;;;;7.20;4.75;;;;;;;18.09;100.00;101672.91;5092535;28;20089;-70
2022/08/01 02:47:02;;;;;;;7.22;4.50;;;;;;;18.07;100.00;101677.38;5106984;28;20031;-70
2022/08/01 02:49:31;;;;;;;7.18;4.85;;;;;;;18.07;100.00;101674.72;5091452;28;20555;-70
2022/08/01 02:51:58;;;;;;;6.95;4.68;;;;;;;18.04;100.00;101680.03;5098278;28;20028;-70
2022/08/01 02:54:26;;;;;;;8.35;4.50;;;;;;;18.05;100.00;101679.16;5104591;28;20052;-69
2022/08/01 02:56:53;;;;;;;5.53;3.90;;;;;;;17.99;100.00;101668.50;5091538;28;20020;-69
2022/08/01 02:59:25;;;;;;;4.32;3.78;;;;;;;17.98;100.00;101669.41;5114272;28;20043;-70
2022/08/01 03:01:55;;;;;;;7.32;3.58;;;;;;;17.96;100.00;101668.50;5110723;28;20152;-69
2022/08/01 03:04:22;;;;;;;8.57;3.70;;;;;;;17.94;100.00;101672.94;5110365;28;20027;-70
2022/08/01 03:06:48;;;;;;;7.55;3.92;;;;;;;17.89;100.00;101675.56;5106524;28;20058;-70
2022/08/01 03:09:14;;;;;;;5.28;3.80;;;;;;;17.90;100.00;101674.69;5101831;28;20040;-69
2022/08/01 03:11:42;;;;;;;7.68;3.83;;;;;;;17.84;100.00;101675.56;5104141;28;20028;-70
2022/08/01 03:14:09;;;;;;;5.80;3.25;;;;;;;17.83;100.00;101681.78;5106625;28;20582;-72
2022/08/01 03:16:38;;;;;;;4.00;2.92;;;;;;;17.81;100.00;101675.59;5112068;28;20035;-70
2022/08/01 03:19:04;;;;;;;4.80;3.00;;;;;;;17.82;100.00;101684.44;5100572;28;20044;-71
2022/08/01 03:21:32;;;;;;;6.97;4.00;;;;;;;17.82;100.00;101680.03;5098038;28;20032;-71
2022/08/01 03:24:00;;;;;;;7.65;3.72;;;;;;;17.81;100.00;101678.25;5102768;28;20028;-70
2022/08/01 03:26:28;;;;;;;5.72;3.42;;;;;;;17.81;100.00;101682.66;5110342;28;20112;-70
2022/08/01 03:28:58;;;;;;;6.03;3.80;;;;;;;17.81;100.00;101686.25;5113769;28;20028;-69
2022/08/01 03:31:25;;;;;;;4.38;3.53;;;;;;;17.81;100.00;101680.91;5114795;28;20024;-69
2022/08/01 03:33:51;;;;;;;5.00;3.65;;;;;;;17.79;100.00;101681.81;5103406;28;20454;-70
2022/08/01 03:36:20;;;;;;;6.35;3.80;;;;;;;17.79;100.00;101687.13;5094521;28;20064;-69
2022/08/01 03:38:47;;;;;;;5.22;3.60;;;;;;;17.81;100.00;101688.91;5109582;28;20455;-68
2022/08/01 03:41:18;;;;;;;9.43;3.83;;;;;;;17.83;100.00;101688.91;5114362;28;20027;-70
2022/08/01 03:43:57;;;;;;;8.55;3.83;;;;;;;17.82;100.00;101687.13;5112410;28;20379;-70
2022/08/01 03:46:29;;;;;;;6.07;3.70;;;;;;;17.82;100.00;101690.69;5105135;28;20020;-69
2022/08/01 03:48:59;;;;;;;6.60;3.85;;;;;;;17.83;100.00;101687.09;5101054;28;20042;-70
2022/08/01 03:51:25;;;;;;;7.82;3.92;;;;;;;17.83;100.00;101681.78;5093123;28;20026;-71
2022/08/01 03:53:54;;;;;;;5.78;3.63;;;;;;;17.85;100.00;101680.03;5095061;28;20475;-71
2022/08/01 03:56:22;;;;;;;8.15;3.80;;;;;;;17.85;100.00;101677.38;5106029;28;20038;-71
2022/08/01 03:58:48;;;;;;;6.20;3.58;;;;;;;17.83;100.00;101673.78;5093466;28;20024;-71
2022/08/01 04:01:15;;;;;;;5.95;4.00;;;;;;;17.81;100.00;101675.59;5105735;28;20031;-71
2022/08/01 04:03:42;;;;;;;5.65;3.70;;;;;;;17.80;100.00;101679.13;5084686;28;20075;-71
2022/08/01 04:06:10;;;;;;;7.85;3.53;;;;;;;17.78;100.00;101672.91;5107802;28;20027;-71
2022/08/01 04:08:39;;;;;;;8.00;3.92;;;;;;;17.76;100.00;101676.47;5098892;28;20031;-71
2022/08/01 04:11:07;;;;;;;6.68;3.50;;;;;;;17.73;100.00;101680.03;5100839;28;20028;-71
2022/08/01 04:13:33;;;;;;;6.13;3.35;;;;;;;17.74;100.00;101679.13;5095341;28;20444;-71
2022/08/01 04:15:58;;;;;;;11.05;4.03;;;;;;;17.76;100.00;101681.81;5106575;28;20027;-71
2022/08/01 04:18:24;;;;;;;6.35;4.05;;;;;;;17.78;100.00;101686.22;5097281;28;20024;-69
2022/08/01 04:20:50;;;;;;;8.27;4.03;;;;;;;17.80;100.00;101691.56;5078098;28;20032;-70
2022/08/01 04:23:17;;;;;;;14.88;6.00;;;;;;;17.83;100.00;101695.09;5107960;28;20438;-70
2022/08/01 04:25:44;;;;;;;14.50;5.82;;;;;;;17.85;100.00;101692.44;5099778;28;20028;-71
2022/08/01 04:28:16;;;;;;;8.02;4.38;;;;;;;17.87;100.00;101690.66;5101035;28;20421;-71
2022/08/01 04:30:44;;;;;;;6.88;4.03;;;;;;;17.89;100.00;101693.31;5093139;28;20023;-70
2022/08/01 04:33:13;;;;;;;6.25;3.50;;;;;;;17.90;100.00;101690.66;5110059;28;20028;-71
2022/08/01 04:35:41;;;;;;;5.07;4.00;;;;;;;17.90;100.00;101695.97;5086630;28;20436;-71
2022/08/01 04:38:08;;;;;;;7.95;4.35;;;;;;;17.91;100.00;101688.91;5098325;28;20059;-70
2022/08/01 04:40:36;;;;;;;7.28;4.22;;;;;;;17.93;100.00;101695.13;5104324;28;20085;-71
2022/08/01 04:43:02;;;;;;;5.80;4.38;;;;;;;17.92;100.00;101698.69;5111239;28;20052;-71
2022/08/01 04:45:28;;;;;;;5.63;4.15;;;;;;;17.95;100.00;101704.03;5101675;28;20055;-71
2022/08/01 04:47:54;;;;;;;5.80;3.85;;;;;;;17.97;100.00;101697.81;5112359;28;20059;-71
2022/08/01 04:50:21;;;;;;;7.80;4.10;;;;;;;17.99;100.00;101698.69;5090894;28;20023;-68
2022/08/01 04:52:47;;;;;;;5.82;3.85;;;;;;;18.03;100.00;101700.47;5106857;28;20031;-67
2022/08/01 04:55:12;;;;;;;7.63;3.95;;;;;;;18.05;100.00;101700.44;5099587;28;20433;-71
2022/08/01 04:57:42;;;;;;;3.25;2.95;;;;;;;18.07;100.00;101704.00;5093513;28;20089;-72
2022/08/01 05:00:08;;;;;;;5.75;3.53;;;;;;;18.08;100.00;101703.13;5108212;28;20047;-73
2022/08/01 05:02:34;;;;;;;13.45;3.50;;;;;;;18.10;100.00;101703.13;5093770;28;20024;-72
2022/08/01 05:04:59;;;;;;;4.32;3.08;;;;;;;18.14;100.00;101711.09;5106399;28;20035;-73
2022/08/01 05:07:24;;;;;;;4.82;3.47;;;;;;;18.12;100.00;101707.56;5112307;28;20019;-72
2022/08/01 05:09:50;;;;;;;6.32;3.58;;;;;;;18.13;100.00;101711.09;5107707;28;20030;-72
2022/08/01 05:12:16;;;;;;;8.93;3.72;;;;;;;18.15;100.00;101718.22;5103876;28;20395;-71
2022/08/01 05:14:41;;;;;;;5.43;3.60;;;;;;;18.17;100.00;101711.09;5101570;28;20034;-71
2022/08/01 05:17:08;;;;;;;4.95;3.25;;;;;;;18.20;100.00;101715.53;5084592;28;20475;-73
2022/08/01 05:19:34;;;;;;;5.70;3.80;;;;;;;18.24;100.00;101705.78;5103348;28;20749;-72
2022/08/01 05:22:05;;;;;;;6.90;3.63;;;;;;;18.26;100.00;101706.63;5105604;28;20165;-73
2022/08/01 05:24:32;;;;;;;5.78;3.28;;;;;;;18.29;100.00;101709.31;5102761;28;20030;-71
2022/08/01 05:26:58;;;;;;;5.82;3.35;;;;;;;18.32;100.00;101706.63;5111757;28;20058;-71
2022/08/01 05:29:24;;;;;;;3.78;3.42;;;;;;;18.36;100.00;101716.41;5098065;28;20020;-72
2022/08/01 05:31:50;;;;;;;6.78;3.03;;;;;;;18.40;100.00;101718.16;5110646;28;20024;-71
2022/08/01 05:34:16;;;;;;;3.85;3.25;;;;;;;18.44;100.00;101709.28;5097088;28;20099;-71
2022/08/01 05:36:41;;;;;;;4.75;3.50;;;;;;;18.47;100.00;101716.38;5101200;28;20380;-71
2022/08/01 05:39:07;;;;;;;5.88;4.22;;;;;;;18.50;100.00;101709.28;5105739;28;20028;-71
2022/08/01 05:41:32;;;;;;;5.50;3.83;;;;;;;18.52;100.00;101728.81;5085369;28;20475;-71
2022/08/01 05:43:58;;;;;;;6.80;3.72;;;;;;;18.51;100.00;101728.81;5110031;28;20083;-72
2022/08/01 05:46:23;;;;;;;4.57;3.10;;;;;;;18.47;100.00;101735.03;5100231;28;20059;-71
2022/08/01 05:48:51;;;;;;;4.40;3.33;;;;;;;18.48;100.00;101731.50;5101281;28;20031;-71
2022/08/01 05:51:16;;;;;;;5.40;3.30;;;;;;;18.47;100.00;101745.69;5108349;28;20088;-71
2022/08/01 05:53:41;;;;;;;5.10;3.30;;;;;;;18.43;100.00;101743.94;5108457;28;20471;-71
2022/08/01 05:56:07;;;;;;;6.90;3.67;;;;;;;18.39;100.00;101742.16;5109572;28;20024;-71
2022/08/01 05:58:32;;;;;;;7.63;3.65;;;;;;;18.36;100.00;101738.59;5096725;28;20391;-71
2022/08/01 06:00:58;;;;;;;6.90;3.50;;;;;;;18.32;100.00;101744.81;5105071;28;20042;-71
2022/08/01 06:03:23;;;;;;;5.82;3.80;;;;;;;18.34;100.00;101747.50;5108210;28;20027;-72
2022/08/01 06:05:49;;;;;;;3.88;3.40;;;;;;;18.34;100.00;101740.41;5107212;28;20027;-71
2022/08/01 06:08:15;;;;;;;4.43;3.50;;;;;;;18.34;100.00;101747.50;5107969;28;20447;-71
2022/08/01 06:10:40;;;;;;;6.72;3.58;;;;;;;18.35;100.00;101749.25;5105525;28;20154;-71
2022/08/01 06:13:05;;;;;;;4.20;3.40;;;;;;;18.33;100.00;101751.06;5107666;28;20036;-71
2022/08/01 06:15:32;;;;;;;6.43;4.25;;;;;;;18.37;100.00;101751.03;5104391;27;20028;-71
2022/08/01 06:17:57;;;;;;;7.20;3.78;;;;;;;18.39;100.00;101756.34;5115860;27;20494;-72
2022/08/01 06:20:23;;;;;;;7.97;5.15;;;;;;;18.38;100.00;101754.59;5103778;28;20024;-71
2022/08/01 06:22:48;;;;;;;9.45;4.43;;;;;;;18.37;100.00;101750.16;5102956;28;20031;-71
2022/08/01 06:25:13;;;;;;;6.38;4.40;;;;;;;18.39;100.00;101756.34;5106201;28;20027;-71
2022/08/01 06:27:39;;;;;;;8.63;4.80;;;;;;;18.39;100.00;101758.16;5110870;28;20024;-70
2022/08/01 06:30:07;;;;;;;12.35;5.68;;;;;;;18.40;100.00;101766.13;5114524;28;20459;-71
2022/08/01 06:32:32;;;;;;;14.00;5.50;;;;;;;18.34;100.00;101758.16;5092344;28;20357;-70
2022/08/01 06:34:58;;;;;;;10.82;5.95;;;;;;;18.30;100.00;101761.69;5111989;28;20031;-71
2022/08/01 06:37:23;;;;;;;13.75;5.60;;;;;;;18.28;100.00;101766.16;5108949;28;20475;-70
2022/08/01 06:39:49;;;;;;;13.50;5.38;;;;;;;18.21;100.00;101767.94;5111216;28;20038;-70
2022/08/01 06:42:15;;;;;;;13.23;5.35;;;;;;;18.13;100.00;101762.59;5115295;28;20102;-71
2022/08/01 06:44:40;;;;;;;14.85;5.63;;;;;;;18.11;100.00;101776.78;5107764;28;20027;-71
2022/08/01 06:47:06;;;;;;;18.48;6.22;;;;;;;18.02;100.00;101777.69;5099163;28;20395;-71
2022/08/01 06:49:31;;;;;;;19.90;6.03;;;;;;;17.93;100.00;101775.91;5102875;28;20027;-73
2022/08/01 06:51:56;;;;;;;19.63;6.35;;;;;;;17.92;100.00;101773.22;5101355;28;20031;-72
2022/08/01 06:54:22;;;;;;;23.63;6.25;;;;;;;17.92;100.00;101776.81;5092029;28;20026;-72
2022/08/01 06:56:47;;;;;;;17.23;6.13;;;;;;;17.89;100.00;101773.22;5105900;28;20074;-72
2022/08/01 06:59:12;;;;;;;21.02;6.93;;;;;;;17.91;100.00;101779.44;5095380;28;20036;-73
2022/08/01 07:01:38;;;;;;;25.23;6.80;;;;;;;17.96;100.00;101780.34;5098632;28;20058;-73
2022/08/01 07:04:03;;;;;;;18.33;7.40;;;;;;;18.01;100.00;101783.91;5106567;28;20012;-72
2022/08/01 07:06:28;;;;;;;22.38;7.38;;;;;;;18.05;100.00;101785.69;5112776;28;20033;-72
2022/08/01 07:08:54;;;;;;;31.02;7.97;;;;;;;18.10;100.00;101791.03;5111850;28;20027;-73
2022/08/01 07:11:21;;;;;;;26.05;7.60;;;;;;;18.20;100.00;101792.78;5109286;28;20024;-72
2022/08/01 07:13:47;;;;;;;26.77;7.53;;;;;;;18.24;100.00;101785.69;5094959;28;20062;-71
2022/08/01 07:16:13;;;;;;;24.65;7.38;;;;;;;18.32;100.00;101790.13;5084264;28;20387;-72
2022/08/01 07:18:39;;;;;;;24.88;4.93;;;;;;;18.25;100.00;101800.78;5108663;28;20055;-73
2022/08/01 07:21:05;;;;;;;18.48;5.35;;;;;;;18.34;100.00;101798.13;5101867;28;20469;-72
2022/08/01 07:23:30;;;;;;;23.73;5.38;;;;;;;18.42;100.00;101798.13;5102752;28;20106;-73
2022/08/01 07:25:56;;;;;;;26.42;5.07;;;;;;;18.43;100.00;101800.78;5081750;28;20111;-72
2022/08/01 07:28:21;;;;;;;22.73;4.97;;;;;;;18.51;100.00;101806.97;5101409;28;20027;-72
2022/08/01 07:30:46;;;;;;;17.95;5.53;;;;;;;18.46;100.00;101807.88;5098438;28;20540;-72
2022/08/01 07:33:12;;;;;;;27.05;5.97;;;;;;;18.50;100.00;101810.56;5107657;28;20404;-72
2022/08/01 07:35:40;;;;;;;26.67;5.22;;;;;;;18.48;100.00;101817.66;5085851;28;20024;-72
2022/08/01 07:38:07;;;;;;;17.48;5.47;;;;;;;18.52;100.00;101819.41;5088429;28;20016;-72
2022/08/01 07:40:32;;;;;;;21.13;4.68;;;;;;;18.59;100.00;101822.09;5078755;28;20019;-72
2022/08/01 07:42:57;;;;;;;23.55;5.20;;;;;;;18.63;100.00;101822.06;5103138;28;20471;-73
2022/08/01 07:45:23;;;;;;;20.33;5.43;;;;;;;18.68;100.00;101830.09;5099549;28;20107;-72
2022/08/01 07:47:49;;;;;;;28.85;5.45;;;;;;;18.80;100.00;101829.16;5107851;28;20019;-72
2022/08/01 07:50:15;;;;;;;20.17;3.90;;;;;;;18.87;100.00;101837.16;5110816;28;20036;-72
2022/08/01 07:52:41;;;;;;;24.88;5.10;;;;;;;18.87;100.00;101839.81;5109926;28;20051;-72
2022/08/01 07:55:07;;;;;;;20.88;4.43;;;;;;;18.87;100.00;101836.28;5104999;28;20301;-73
2022/08/01 07:57:32;;;;;;;19.50;4.40;;;;;;;18.97;100.00;101839.84;5085236;28;21288;-72
2022/08/01 07:59:58;;;;;;;15.77;3.90;;;;;;;19.03;100.00;101843.38;5094750;28;20071;-73
2022/08/01 08:02:23;;;;;;;19.60;3.97;;;;;;;18.99;100.00;101846.03;5102873;28;20055;-71
2022/08/01 08:04:49;;;;;;;24.92;4.55;;;;;;;19.02;100.00;101838.94;5106933;28;20036;-73
2022/08/01 08:07:14;;;;;;;19.10;4.60;;;;;;;18.97;100.00;101845.19;5094641;28;20038;-71
2022/08/01 08:09:39;;;;;;;18.52;4.78;;;;;;;18.84;100.00;101842.50;5112472;28;20092;-72
2022/08/01 08:12:06;;;;;;;16.00;4.72;;;;;;;18.87;100.00;101842.50;5101704;28;20036;-71
2022/08/01 08:14:31;;;;;;;14.32;4.10;;;;;;;18.87;100.00;101847.81;5095235;28;20023;-72
2022/08/01 08:16:56;;;;;;;15.85;3.88;;;;;;;18.95;100.00;101846.94;5095725;28;20368;-72
2022/08/01 08:19:22;;;;;;;17.85;3.95;;;;;;;19.02;100.00;101854.06;5108050;28;20027;-74
2022/08/01 08:21:47;;;;;;;17.75;4.40;;;;;;;18.98;100.00;101849.63;5101756;28;20066;-70
2022/08/01 08:24:22;;;;;;;14.32;3.17;;;;;;;19.12;100.00;101838.91;5105936;28;20051;-73
2022/08/01 08:26:49;;;;;;;19.65;3.67;;;;;;;19.29;100.00;101854.84;5100559;28;20480;-73
2022/08/01 08:29:15;;;;;;;16.67;3.50;;;;;;;19.38;100.00;101849.47;5111658;28;20031;-73
2022/08/01 08:31:40;;;;;;;13.63;3.58;;;;;;;19.50;100.00;101852.09;5105571;28;20425;-73
2022/08/01 08:34:06;;;;;;;15.77;3.40;;;;;;;19.50;100.00;101860.09;5106731;28;20024;-74
2022/08/01 08:36:31;;;;;;;10.73;3.25;;;;;;;19.61;100.00;101856.50;5110108;28;20027;-73
2022/08/01 08:39:00;;;;;;;14.45;3.88;;;;;;;19.75;100.00;101857.34;5102957;28;20019;-72
2022/08/01 08:41:25;;;;;;;18.38;3.58;;;;;;;19.92;100.00;101857.25;5103291;28;20471;-72
2022/08/01 08:43:51;;;;;;;14.45;3.88;;;;;;;20.09;100.00;101858.94;5099051;28;20031;-72
2022/08/01 08:46:17;;;;;;;14.38;3.72;;;;;;;20.16;100.00;101860.69;5096989;28;20103;-73
2022/08/01 08:48:42;;;;;;;8.57;3.25;;;;;;;20.32;100.00;101861.44;5103023;28;20129;-72
2022/08/01 08:51:10;;;;;;;12.35;3.03;;;;;;;20.43;100.00;101872.03;5107754;28;20027;-72
2022/08/01 08:53:38;;;;;;;16.92;3.20;;;;;;;20.53;100.00;101874.63;5094381;28;20076;-72
2022/08/01 08:56:06;;;;;;;14.40;3.42;;;;;;;20.60;100.00;101864.75;5098720;28;20024;-72
2022/08/01 08:58:37;;;;;;;12.93;3.30;;;;;;;20.54;100.00;101876.41;5110109;28;20038;-73
2022/08/01 09:01:05;;;;;;;10.15;3.13;;;;;;;20.63;100.00;101878.13;5110914;28;20040;-72
2022/08/01 09:03:30;;;;;;;15.90;4.75;;;;;;;20.39;100.00;101869.41;5109355;28;20077;-70
2022/08/01 09:05:56;;;;;;;11.48;3.38;;;;;;;20.46;100.00;101870.25;5102561;28;20040;-72
2022/08/01 09:08:21;;;;;;;17.38;3.83;;;;;;;20.20;100.00;101874.00;5097240;28;20052;-72
2022/08/01 09:10:47;;;;;;;14.10;3.55;;;;;;;20.16;100.00;101882.94;5091718;28;20036;-72
2022/08/01 09:13:14;;;;;;;10.25;3.00;;;;;;;19.86;100.00;101879.56;5096621;28;20062;-73
2022/08/01 09:15:47;;;;;;;12.57;2.65;;;;;;;19.97;100.00;101883.97;5098662;28;20035;-73
2022/08/01 09:18:31;;;;;;;15.07;2.90;;;;;;;20.08;100.00;101881.22;5093803;28;20486;-74
2022/08/01 09:21:19;;;;;;;12.68;2.47;;;;;;;20.29;100.00;101880.16;5097801;28;20039;-72
2022/08/01 09:23:45;;;;;;;9.93;2.65;;;;;;;20.59;100.00;101880.81;5098081;28;20037;-72
2022/08/01 09:26:12;;;;;;;13.77;2.75;;;;;;;20.69;100.00;101874.53;5096765;28;20089;-73
2022/08/01 09:28:38;;;;;;;10.88;2.53;;;;;;;20.91;100.00;101885.03;5108253;28;20047;-72
2022/08/01 09:31:16;;;;;;;8.45;2.33;;;;;;;20.93;100.00;101891.25;5092051;28;20051;-73
2022/08/01 09:33:55;;;;;;;9.30;1.92;;;;;;;20.99;100.00;101893.88;5101854;28;20118;-73
2022/08/01 09:36:22;;;;;;;9.57;1.90;;;;;;;21.19;100.00;101894.56;5098076;28;20486;-72
2022/08/01 09:38:48;;;;;;;14.15;2.58;;;;;;;21.40;100.00;101892.53;5105951;28;20422;-71
2022/08/01 09:41:14;;;;;;;9.18;1.85;;;;;;;21.56;100.00;101894.13;5103993;28;20016;-72
2022/08/01 09:43:39;;;;;;;10.80;2.58;;;;;;;21.37;100.00;101892.56;5099161;28;20073;-72
2022/08/01 09:46:13;;;;;;;10.38;2.55;;;;;;;21.60;100.00;101899.47;5106606;28;20024;-73
2022/08/01 09:48:39;;;;;;;8.13;2.17;;;;;;;21.53;100.00;101894.19;5110073;28;20026;-72
2022/08/01 09:51:05;;;;;;;9.52;1.90;;;;;;;21.66;100.00;101899.38;5101237;28;20024;-73
2022/08/01 09:53:42;;;;;;;8.15;1.85;;;;;;;21.86;100.00;101900.00;5104799;28;20102;-73
2022/08/01 09:56:11;;;;;;;5.82;1.50;;;;;;;21.94;100.00;101901.72;5104848;28;20028;-72
2022/08/01 09:58:56;;;;;;;9.05;2.33;;;;;;;21.83;100.00;101901.84;5075944;28;20481;-72
2022/08/01 10:01:22;;;;;;;7.85;1.98;;;;;;;22.05;100.00;101907.78;5102701;28;20108;-72
2022/08/01 10:04:04;;;;;;;6.30;1.45;;;;;;;22.27;100.00;101899.44;5093122;28;20429;-73
2022/08/01 10:06:29;;;;;;;14.25;2.47;;;;;;;22.30;100.00;101910.09;5107246;28;20035;-73
2022/08/01 10:08:55;;;;;;;10.50;2.25;;;;;;;22.37;100.00;101903.78;5101273;28;20028;-72
2022/08/01 10:11:21;;;;;;;8.60;1.70;;;;;;;22.30;100.00;101902.06;5102688;28;20031;-72
2022/08/01 10:13:48;;;;;;;5.50;1.45;;;;;;;22.23;100.00;101906.63;5111207;28;20061;-71
2022/08/01 10:16:14;;;;;;;6.75;1.42;;;;;;;22.43;100.00;101902.81;5115946;28;20027;-72
2022/08/01 10:18:40;;;;;;;7.13;1.50;;;;;;;22.63;100.00;101899.78;5112555;28;20016;-73
2022/08/01 10:21:06;;;;;;;8.10;1.85;;;;;;;22.27;100.00;101899.44;5098965;28;20029;-73
2022/08/01 10:23:36;;;;;;;11.55;2.28;;;;;;;22.32;100.00;101894.88;5109084;28;20085;-73
2022/08/01 10:26:04;;;;;;;12.38;3.13;;;;;;;22.58;100.00;101896.28;5102548;28;20051;-72
2022/08/01 10:28:30;;;;;;;8.02;1.90;;;;;;;22.82;100.00;101895.00;5106663;28;20027;-71
2022/08/01 10:30:57;;;;;;;5.93;1.77;;;;;;;22.97;100.00;101900.06;5104314;28;20047;-71
2022/08/01 10:33:24;;;;;;;5.45;1.55;;;;;;;23.03;100.00;101899.06;5100068;28;20490;-71
2022/08/01 10:35:50;;;;;;;7.32;1.85;;;;;;;23.23;100.00;101913.03;5101792;28;20764;-72
2022/08/01 10:38:16;;;;;;;9.77;2.00;;;;;;;22.82;100.00;101905.72;5082641;28;20065;-72
2022/08/01 10:40:42;;;;;;;13.73;2.33;;;;;;;22.63;100.00;101910.53;5115251;28;20051;-72
2022/08/01 10:43:10;;;;;;;7.20;1.80;;;;;;;22.54;100.00;101908.88;5095604;28;20110;-72
2022/08/01 10:45:35;;;;;;;11.13;2.20;;;;;;;22.61;100.00;101912.34;5094804;28;20149;-72
2022/08/01 10:48:07;;;;;;;6.97;1.92;;;;;;;22.71;100.00;101912.16;5075197;28;20114;-72
2022/08/01 10:50:48;;;;;;;5.93;2.00;;;;;;;22.81;100.00;101907.50;5083911;28;20028;-72
2022/08/01 10:53:25;;;;;;;8.20;1.67;;;;;;;22.70;100.00;101907.69;5108916;28;20046;-73
2022/08/01 10:56:05;;;;;;;6.85;1.83;;;;;;;22.76;100.00;101912.06;5102684;28;20028;-73
2022/08/01 10:58:34;;;;;;;8.85;2.22;;;;;;;22.77;100.00;101913.84;5110037;28;20039;-71
2022/08/01 11:01:21;;;;;;;9.18;2.75;;;;;;;22.68;100.00;101911.31;5100162;28;20475;-72
2022/08/01 11:04:05;;;;;;;6.20;2.33;;;;;;;22.75;100.00;101915.69;5104518;28;20036;-73
2022/08/01 11:06:33;;;;;;;11.52;2.25;;;;;;;22.90;100.00;101918.09;5111798;28;20077;-73
2022/08/01 11:09:02;;;;;;;10.63;2.15;;;;;;;22.92;100.00;101919.88;5092602;28;20020;-72
2022/08/01 11:11:27;;;;;;;10.40;2.28;;;;;;;23.18;100.00;101930.16;5096108;28;20024;-72
2022/08/01 11:14:06;;;;;;;12.73;2.50;;;;;;;23.41;100.00;101921.63;5099587;28;21818;-72
2022/08/01 11:16:35;;;;;;;7.07;2.35;;;;;;;23.64;100.00;101922.97;5112016;28;20028;-73